Time;durP1;ratioP1;P1;durP2;ratioP2;P2;SDS_P1;SDS_P2;PMS_P1;PMS_P2;Temp;Humidity;BMP_temperature;BMP_pressure;BME280_temperature;BME280_humidity;BME280_pressure;Samples;Min_cycle;Max_cycle;Signal;HPM_P1;HPM_P2
2024/03/16 00:01:46;;;;;;;1.50;0.70;;;11.60;99.90;;;;;;5074420;28;20458;-75
2024/03/16 00:04:12;;;;;;;1.17;0.60;;;11.60;99.90;;;;;;5073829;28;20640;-75
2024/03/16 00:06:37;;;;;;;1.90;0.70;;;11.60;99.90;;;;;;5074407;28;20730;-74
2024/03/16 00:09:04;;;;;;;1.80;0.83;;;11.60;99.90;;;;;;5074322;28;20543;-75
2024/03/16 00:11:31;;;;;;;0.90;0.70;;;11.70;99.90;;;;;;5074207;28;20169;-75
2024/03/16 00:13:57;;;;;;;3.37;0.90;;;11.70;99.90;;;;;;5074446;28;20425;-74
2024/03/16 00:16:23;;;;;;;0.93;0.70;;;11.60;99.90;;;;;;5074298;28;20451;-75
2024/03/16 00:18:48;;;;;;;0.90;0.60;;;11.80;99.90;;;;;;5074057;28;20401;-74
2024/03/16 00:21:14;;;;;;;1.67;0.90;;;11.70;99.90;;;;;;5074086;28;20170;-75
2024/03/16 00:23:39;;;;;;;3.63;0.60;;;11.60;99.90;;;;;;5074270;28;20182;-75
2024/03/16 00:26:05;;;;;;;1.10;0.60;;;11.60;99.90;;;;;;5074352;28;20252;-74
2024/03/16 00:28:30;;;;;;;1.30;0.60;;;11.70;99.90;;;;;;5073864;28;20180;-75
2024/03/16 00:30:56;;;;;;;0.90;0.50;;;11.60;99.90;;;;;;5073921;28;20169;-75
2024/03/16 00:33:22;;;;;;;1.00;0.60;;;11.60;99.90;;;;;;5073801;28;20280;-75
2024/03/16 00:35:47;;;;;;;1.67;0.50;;;11.60;99.90;;;;;;5074033;28;20366;-75
2024/03/16 00:38:13;;;;;;;1.10;0.60;;;11.60;99.90;;;;;;5073753;28;20169;-75
2024/03/16 00:40:38;;;;;;;1.50;0.60;;;11.70;99.90;;;;;;5074015;28;20169;-75
2024/03/16 00:43:04;;;;;;;0.80;0.50;;;11.70;99.90;;;;;;5073929;28;20191;-74
2024/03/16 00:45:30;;;;;;;0.97;0.60;;;11.50;99.90;;;;;;5073891;28;20547;-74
2024/03/16 00:47:56;;;;;;;0.90;0.60;;;11.40;99.90;;;;;;5073624;28;20658;-74
2024/03/16 00:50:21;;;;;;;2.17;0.80;;;11.60;99.90;;;;;;5072965;28;20176;-75
2024/03/16 00:52:47;;;;;;;1.40;0.60;;;11.50;99.90;;;;;;5073612;28;20435;-74
2024/03/16 00:55:13;;;;;;;0.83;0.53;;;11.50;99.90;;;;;;5073750;28;20199;-74
2024/03/16 00:57:38;;;;;;;1.60;0.60;;;11.50;99.90;;;;;;5073579;28;20195;-75
2024/03/16 01:00:04;;;;;;;1.17;0.70;;;11.40;99.90;;;;;;5073323;28;20163;-74
2024/03/16 01:02:30;;;;;;;1.40;0.83;;;11.40;99.90;;;;;;5073720;28;20216;-75
2024/03/16 01:04:56;;;;;;;2.03;0.70;;;11.50;99.90;;;;;;5073588;28;20388;-75
2024/03/16 01:07:21;;;;;;;0.97;0.63;;;11.30;99.90;;;;;;5073388;28;20266;-75
2024/03/16 01:09:48;;;;;;;2.30;0.60;;;11.40;99.90;;;;;;5073279;28;20252;-75
2024/03/16 01:12:13;;;;;;;3.13;0.70;;;11.20;99.90;;;;;;5073465;28;20224;-75
2024/03/16 01:14:40;;;;;;;1.33;0.67;;;11.10;99.90;;;;;;5073080;28;20428;-75
2024/03/16 01:17:06;;;;;;;1.73;0.50;;;11.00;99.90;;;;;;5073009;28;20182;-75
2024/03/16 01:19:31;;;;;;;1.73;0.60;;;11.10;99.90;;;;;;5073041;28;20534;-75
2024/03/16 01:21:57;;;;;;;1.50;0.60;;;11.10;99.90;;;;;;5073440;28;20256;-75
2024/03/16 01:24:22;;;;;;;1.37;0.57;;;11.10;99.90;;;;;;5072162;28;20186;-75
2024/03/16 01:26:49;;;;;;;1.27;0.60;;;11.20;99.90;;;;;;5073252;28;20509;-75
2024/03/16 01:29:15;;;;;;;1.10;0.53;;;11.10;99.90;;;;;;5073301;28;20181;-75
2024/03/16 01:31:41;;;;;;;1.10;0.60;;;11.10;99.90;;;;;;5073031;28;20406;-75
2024/03/16 01:34:07;;;;;;;0.90;0.60;;;11.30;99.90;;;;;;5072582;28;20950;-75
2024/03/16 01:36:32;;;;;;;5.47;0.80;;;11.20;99.90;;;;;;5072812;28;20539;-74
2024/03/16 01:38:59;;;;;;;1.63;0.60;;;11.20;99.90;;;;;;5072791;28;20245;-75
2024/03/16 01:41:25;;;;;;;1.23;0.60;;;11.30;99.90;;;;;;5073617;28;20158;-75
2024/03/16 01:43:50;;;;;;;1.10;0.53;;;11.20;99.90;;;;;;5073496;28;20849;-75
2024/03/16 01:46:17;;;;;;;1.00;0.50;;;11.10;99.90;;;;;;5074315;28;20171;-75
2024/03/16 01:48:42;;;;;;;0.80;0.60;;;11.10;99.90;;;;;;5074305;28;20169;-75
2024/03/16 01:51:08;;;;;;;1.23;0.70;;;11.10;99.90;;;;;;5075390;28;20499;-74
2024/03/16 01:53:35;;;;;;;0.70;0.50;;;11.10;99.90;;;;;;5058158;28;20198;-75
2024/03/16 01:56:02;;;;;;;0.80;0.57;;;11.10;99.90;;;;;;5076242;28;20196;-75
2024/03/16 01:58:30;;;;;;;0.90;0.60;;;11.10;99.90;;;;;;5075922;28;20989;-75
2024/03/16 02:00:56;;;;;;;0.70;0.50;;;11.10;99.90;;;;;;5074343;28;20498;-75
2024/03/16 02:03:21;;;;;;;0.80;0.60;;;11.10;99.90;;;;;;5093498;22;20540;-72
2024/03/16 02:05:47;;;;;;;0.83;0.60;;;11.10;99.90;;;;;;5073832;28;20258;-71
2024/03/16 02:08:12;;;;;;;0.90;0.70;;;11.10;99.90;;;;;;5091542;28;20546;-71
2024/03/16 02:10:38;;;;;;;0.80;0.60;;;11.10;99.90;;;;;;5092095;28;20165;-73
2024/03/16 02:13:04;;;;;;;1.00;0.60;;;11.30;99.90;;;;;;5091964;28;20499;-72
2024/03/16 02:15:29;;;;;;;1.53;0.60;;;11.20;99.90;;;;;;5091866;28;20245;-71
2024/03/16 02:17:55;;;;;;;0.90;0.60;;;11.20;99.90;;;;;;5091969;28;20200;-72
2024/03/16 02:20:20;;;;;;;1.03;0.60;;;11.30;99.90;;;;;;5091964;28;20657;-71
2024/03/16 02:22:48;;;;;;;1.63;0.60;;;11.50;99.90;;;;;;5091820;28;20561;-72
2024/03/16 02:25:13;;;;;;;1.67;0.70;;;11.30;99.90;;;;;;5092079;28;20608;-72
2024/03/16 02:27:39;;;;;;;2.40;0.70;;;11.30;99.90;;;;;;5092072;28;20455;-71
2024/03/16 02:30:09;;;;;;;1.77;0.60;;;11.50;99.90;;;;;;5092000;28;20173;-71
2024/03/16 02:32:35;;;;;;;1.10;0.70;;;11.40;99.90;;;;;;5091951;28;20156;-72
2024/03/16 02:35:00;;;;;;;1.60;0.60;;;11.50;99.90;;;;;;5093254;28;20776;-71
2024/03/16 02:37:26;;;;;;;0.90;0.50;;;11.50;99.90;;;;;;5095366;28;20275;-72
2024/03/16 02:39:51;;;;;;;0.80;0.50;;;11.40;99.90;;;;;;5095511;28;20223;-72
2024/03/16 02:42:17;;;;;;;0.80;0.50;;;11.40;99.90;;;;;;5095618;28;20169;-72
2024/03/16 02:44:43;;;;;;;1.50;0.50;;;11.50;99.90;;;;;;5095405;28;20298;-71
2024/03/16 02:47:10;;;;;;;0.70;0.50;;;11.40;99.90;;;;;;5095315;28;20177;-72
2024/03/16 02:49:35;;;;;;;1.10;0.67;;;11.40;99.90;;;;;;5095075;28;20218;-72
2024/03/16 02:52:03;;;;;;;1.33;0.73;;;11.30;99.90;;;;;;5095565;28;20399;-72
2024/03/16 02:54:29;;;;;;;0.77;0.60;;;11.30;99.90;;;;;;5095235;28;20181;-72
2024/03/16 02:56:54;;;;;;;1.20;0.60;;;11.40;99.90;;;;;;5094881;28;20520;-72
2024/03/16 02:59:20;;;;;;;1.30;0.60;;;11.20;99.90;;;;;;5095088;28;20629;-73
2024/03/16 03:01:46;;;;;;;1.67;0.70;;;11.30;99.90;;;;;;5095258;28;20180;-72
2024/03/16 03:04:13;;;;;;;0.90;0.67;;;11.30;99.90;;;;;;5095108;28;20200;-72
2024/03/16 03:06:40;;;;;;;1.07;0.63;;;11.20;99.90;;;;;;5095253;28;20163;-71
2024/03/16 03:09:09;;;;;;;2.37;0.90;;;11.10;99.90;;;;;;5095076;28;20436;-72
2024/03/16 03:11:37;;;;;;;2.10;0.60;;;11.10;99.90;;;;;;5094952;28;20758;-72
2024/03/16 03:14:03;;;;;;;1.77;0.73;;;11.10;99.90;;;;;;5093460;28;20442;-71
2024/03/16 03:16:29;;;;;;;0.80;0.60;;;11.10;99.90;;;;;;5094830;28;20446;-72
2024/03/16 03:18:55;;;;;;;1.00;0.77;;;11.10;99.90;;;;;;5094635;28;20949;-71
2024/03/16 03:21:20;;;;;;;1.10;0.67;;;11.10;99.90;;;;;;5094639;28;20598;-72
2024/03/16 03:23:46;;;;;;;1.33;0.80;;;11.20;99.90;;;;;;5094569;28;20518;-72
2024/03/16 03:26:13;;;;;;;2.50;0.70;;;11.30;99.90;;;;;;5094821;28;20178;-72
2024/03/16 03:28:38;;;;;;;0.93;0.60;;;11.30;99.90;;;;;;5087356;28;20165;-72
2024/03/16 03:31:06;;;;;;;0.90;0.60;;;11.30;99.90;;;;;;5093975;28;20756;-71
2024/03/16 03:33:32;;;;;;;1.00;0.50;;;11.40;99.90;;;;;;5094292;28;20188;-71
2024/03/16 03:35:59;;;;;;;2.60;0.80;;;11.30;99.90;;;;;;5094525;28;20822;-72
2024/03/16 03:38:25;;;;;;;1.40;0.70;;;11.50;99.90;;;;;;5094408;28;20408;-71
2024/03/16 03:40:50;;;;;;;3.47;0.80;;;11.60;99.90;;;;;;5094261;28;20452;-72
2024/03/16 03:43:22;;;;;;;1.07;0.50;;;11.80;99.90;;;;;;5092954;28;20231;-71
2024/03/16 03:45:52;;;;;;;2.23;0.80;;;11.80;99.90;;;;;;5093639;28;20244;-72
2024/03/16 03:48:25;;;;;;;1.87;0.90;;;12.00;99.90;;;;;;5093913;28;20403;-72
2024/03/16 03:50:57;;;;;;;1.03;0.60;;;11.80;99.90;;;;;;5094209;28;20857;-71
2024/03/16 03:53:25;;;;;;;0.90;0.60;;;11.60;99.90;;;;;;5093957;28;20524;-71
2024/03/16 03:55:51;;;;;;;1.00;0.60;;;11.70;99.90;;;;;;5094020;28;20467;-72
2024/03/16 03:58:17;;;;;;;0.70;0.50;;;11.60;99.90;;;;;;5093979;28;20486;-72
2024/03/16 04:00:44;;;;;;;1.10;0.70;;;11.70;99.90;;;;;;5093818;28;20450;-71
2024/03/16 04:03:10;;;;;;;1.27;0.70;;;11.80;99.90;;;;;;5093614;28;20419;-71
2024/03/16 04:05:35;;;;;;;1.30;0.60;;;11.80;99.90;;;;;;5092852;28;20394;-72
2024/03/16 04:08:02;;;;;;;1.00;0.50;;;11.80;99.90;;;;;;5086350;28;20196;-72
2024/03/16 04:10:27;;;;;;;0.90;0.60;;;11.70;99.90;;;;;;5074766;28;20169;-72
2024/03/16 04:12:54;;;;;;;1.30;0.67;;;11.80;99.90;;;;;;5092828;28;20407;-71
2024/03/16 04:15:19;;;;;;;2.60;0.70;;;11.60;99.90;;;;;;5092471;28;20222;-72
2024/03/16 04:17:45;;;;;;;0.90;0.60;;;11.70;99.90;;;;;;5077356;28;20442;-73
2024/03/16 04:20:12;;;;;;;1.30;0.70;;;11.80;99.90;;;;;;5092764;28;20173;-72
2024/03/16 04:22:38;;;;;;;1.53;0.90;;;11.90;99.90;;;;;;5092845;28;20174;-72
2024/03/16 04:25:07;;;;;;;1.23;0.70;;;12.00;99.90;;;;;;5091443;28;20423;-71
2024/03/16 04:27:32;;;;;;;0.90;0.60;;;12.10;99.90;;;;;;5092863;28;20972;-72
2024/03/16 04:29:58;;;;;;;1.30;0.70;;;12.20;99.90;;;;;;5074755;28;20430;-72
2024/03/16 04:32:26;;;;;;;5.27;0.90;;;11.90;99.90;;;;;;5092663;28;20165;-72
2024/03/16 04:34:55;;;;;;;1.10;0.63;;;12.00;99.90;;;;;;5075492;28;20481;-72
2024/03/16 04:37:21;;;;;;;1.10;0.77;;;12.10;99.90;;;;;;5094374;28;20452;-72
2024/03/16 04:39:47;;;;;;;2.40;0.87;;;12.10;99.90;;;;;;5093835;28;20426;-71
2024/03/16 04:42:14;;;;;;;1.60;0.97;;;11.90;99.90;;;;;;5092928;28;20161;-72
2024/03/16 04:44:40;;;;;;;2.10;1.27;;;11.90;99.90;;;;;;5090990;28;20798;-73
2024/03/16 04:47:05;;;;;;;1.00;0.80;;;11.90;99.90;;;;;;5092860;28;20407;-73
2024/03/16 04:49:31;;;;;;;2.60;0.90;;;12.00;99.90;;;;;;5092233;28;20432;-71
2024/03/16 04:51:57;;;;;;;1.70;0.90;;;12.00;99.90;;;;;;5092574;28;20191;-73
2024/03/16 04:54:23;;;;;;;2.23;1.03;;;12.00;99.90;;;;;;5091858;28;20206;-72
2024/03/16 04:56:49;;;;;;;5.53;1.00;;;12.00;99.90;;;;;;5091936;28;20469;-72
2024/03/16 04:59:14;;;;;;;2.80;1.00;;;12.00;99.90;;;;;;5074014;28;20162;-72
2024/03/16 05:01:40;;;;;;;1.60;0.80;;;11.90;99.90;;;;;;5092131;28;20216;-72
2024/03/16 05:04:05;;;;;;;1.50;0.70;;;11.90;99.90;;;;;;5072691;28;250914;-71
2024/03/16 05:06:31;;;;;;;2.57;0.80;;;11.70;99.90;;;;;;5085734;28;20168;-71
2024/03/16 05:08:57;;;;;;;2.70;1.10;;;11.80;99.90;;;;;;5092768;28;20169;-71
2024/03/16 05:11:23;;;;;;;1.40;0.90;;;11.60;99.90;;;;;;5074543;28;20639;-71
2024/03/16 05:13:49;;;;;;;1.70;0.70;;;11.50;99.90;;;;;;5092728;28;20322;-72
2024/03/16 05:16:15;;;;;;;1.63;0.67;;;11.70;99.90;;;;;;5092576;28;20930;-71
2024/03/16 05:18:40;;;;;;;1.10;0.63;;;11.60;99.90;;;;;;5092917;28;20174;-70
2024/03/16 05:21:07;;;;;;;2.03;0.90;;;11.60;99.90;;;;;;5092951;28;20503;-71
2024/03/16 05:23:33;;;;;;;1.70;0.77;;;11.60;99.90;;;;;;5092917;28;20661;-71
2024/03/16 05:26:01;;;;;;;1.07;0.73;;;11.40;99.90;;;;;;5092410;28;20465;-72
2024/03/16 05:28:27;;;;;;;1.50;0.70;;;11.50;99.90;;;;;;5092094;28;20533;-70
2024/03/16 05:30:53;;;;;;;1.53;0.60;;;11.60;99.90;;;;;;5092822;28;20501;-72
2024/03/16 05:33:18;;;;;;;1.10;0.97;;;11.60;99.90;;;;;;5092309;28;20185;-72
2024/03/16 05:35:44;;;;;;;0.90;0.70;;;11.60;99.90;;;;;;5092179;28;20269;-72
2024/03/16 05:38:10;;;;;;;1.70;0.67;;;11.60;99.90;;;;;;5074064;28;20185;-71
2024/03/16 05:40:40;;;;;;;1.73;0.83;;;11.60;99.90;;;;;;5092376;28;20173;-71
2024/03/16 05:43:06;;;;;;;1.20;0.83;;;11.60;99.90;;;;;;5092296;28;20187;-72
2024/03/16 05:45:31;;;;;;;0.90;0.70;;;11.50;99.90;;;;;;5092155;28;20916;-71
2024/03/16 05:47:57;;;;;;;1.53;0.73;;;11.50;99.90;;;;;;5092513;28;20607;-71
2024/03/16 05:50:22;;;;;;;2.00;0.97;;;11.60;99.90;;;;;;5092426;28;20169;-72
2024/03/16 05:52:48;;;;;;;3.10;0.70;;;11.70;99.90;;;;;;5092167;28;20174;-72
2024/03/16 05:55:15;;;;;;;1.43;0.60;;;11.70;99.90;;;;;;5092091;28;20175;-71
2024/03/16 05:57:41;;;;;;;0.80;0.60;;;11.70;99.90;;;;;;5092302;28;20564;-73
2024/03/16 06:00:13;;;;;;;1.53;0.70;;;11.80;99.90;;;;;;5073943;28;20423;-70
2024/03/16 06:02:39;;;;;;;1.00;0.60;;;11.70;99.90;;;;;;5092403;28;20194;-70
2024/03/16 06:05:05;;;;;;;1.53;0.70;;;11.80;99.90;;;;;;5091487;28;20787;-70
2024/03/16 06:07:31;;;;;;;0.80;0.60;;;11.70;99.90;;;;;;5092280;28;20411;-70
2024/03/16 06:09:57;;;;;;;2.30;0.93;;;11.60;99.90;;;;;;5093409;28;20802;-69
2024/03/16 06:12:23;;;;;;;1.57;0.70;;;11.80;99.90;;;;;;5095838;28;20585;-69
2024/03/16 06:14:49;;;;;;;1.40;0.77;;;12.00;99.90;;;;;;5095984;28;20185;-69
2024/03/16 06:17:15;;;;;;;1.43;0.57;;;12.00;99.90;;;;;;5095527;28;20769;-69
2024/03/16 06:19:41;;;;;;;1.10;0.60;;;12.20;99.90;;;;;;5096056;28;20261;-68
2024/03/16 06:22:07;;;;;;;2.27;1.20;;;12.30;99.90;;;;;;5094712;28;20483;-71
2024/03/16 06:24:33;;;;;;;1.23;0.60;;;12.20;99.90;;;;;;5096080;28;20199;-70
2024/03/16 06:27:05;;;;;;;1.77;0.80;;;12.20;99.90;;;;;;5095743;28;20406;-68
2024/03/16 06:29:34;;;;;;;1.00;0.70;;;12.20;99.90;;;;;;5096190;28;20158;-68
2024/03/16 06:32:06;;;;;;;1.80;0.67;;;12.30;99.90;;;;;;5095896;28;20399;-70
2024/03/16 06:34:33;;;;;;;1.33;0.60;;;12.30;99.90;;;;;;5095651;28;20435;-72
2024/03/16 06:36:59;;;;;;;2.10;0.70;;;12.40;99.90;;;;;;5094041;28;20486;-70
2024/03/16 06:39:25;;;;;;;1.47;0.50;;;12.40;99.90;;;;;;5095620;28;20438;-72
2024/03/16 06:41:50;;;;;;;3.23;0.70;;;12.40;99.90;;;;;;5095348;28;20172;-71
2024/03/16 06:44:17;;;;;;;1.87;0.60;;;12.50;99.90;;;;;;5095294;28;20425;-71
2024/03/16 06:46:42;;;;;;;1.07;0.73;;;12.50;99.90;;;;;;5095520;28;20187;-72
2024/03/16 06:49:08;;;;;;;1.73;0.80;;;12.70;99.90;;;;;;5095154;28;20954;-71
2024/03/16 06:51:34;;;;;;;1.93;0.90;;;12.70;99.90;;;;;;5095381;28;20247;-72
2024/03/16 06:54:00;;;;;;;2.03;0.70;;;12.80;99.90;;;;;;5095312;28;20449;-72
2024/03/16 06:56:25;;;;;;;1.23;0.80;;;12.70;99.90;;;;;;5095183;28;20340;-70
2024/03/16 06:58:51;;;;;;;1.00;0.60;;;12.80;99.90;;;;;;5094584;28;20186;-72
2024/03/16 07:01:17;;;;;;;3.63;0.87;;;12.80;99.90;;;;;;5095040;28;20697;-72
2024/03/16 07:03:43;;;;;;;1.07;0.67;;;12.80;99.90;;;;;;5094822;28;20678;-71
2024/03/16 07:06:08;;;;;;;1.10;0.70;;;12.70;99.90;;;;;;5094914;28;20437;-72
2024/03/16 07:08:36;;;;;;;2.00;0.70;;;12.70;99.90;;;;;;5095099;28;20187;-71
2024/03/16 07:11:02;;;;;;;1.33;0.60;;;12.50;99.90;;;;;;5094945;28;20538;-72
2024/03/16 07:13:27;;;;;;;1.20;0.60;;;12.60;99.90;;;;;;5094795;28;20430;-72
2024/03/16 07:15:53;;;;;;;1.10;0.63;;;12.60;99.90;;;;;;5087938;28;20428;-72
2024/03/16 07:18:19;;;;;;;1.23;0.53;;;12.60;99.90;;;;;;5095095;28;20191;-72
2024/03/16 07:20:46;;;;;;;0.93;0.60;;;12.90;99.90;;;;;;5093861;28;20494;-72
2024/03/16 07:23:12;;;;;;;1.87;0.70;;;13.00;99.90;;;;;;5094494;28;20184;-72
2024/03/16 07:25:37;;;;;;;1.83;0.70;;;13.20;99.90;;;;;;5094700;28;20463;-71
2024/03/16 07:28:04;;;;;;;2.30;0.80;;;13.10;99.90;;;;;;5094534;28;20651;-71
2024/03/16 07:30:30;;;;;;;3.30;0.83;;;13.10;99.90;;;;;;5094859;28;20181;-72
2024/03/16 07:32:56;;;;;;;1.93;0.80;;;12.90;99.90;;;;;;5076345;28;20834;-71
2024/03/16 07:35:22;;;;;;;3.20;1.57;;;12.90;99.90;;;;;;5094501;28;20197;-71
2024/03/16 07:37:48;;;;;;;13.87;12.40;;;13.00;99.90;;;;;;5094545;28;20455;-67
2024/03/16 07:40:13;;;;;;;8.60;4.87;;;13.20;99.90;;;;;;5094504;28;20171;-71
2024/03/16 07:42:42;;;;;;;25.73;19.50;;;13.20;99.90;;;;;;5094288;28;20189;-72
2024/03/16 07:45:08;;;;;;;6.53;5.83;;;13.20;99.90;;;;;;5094117;28;20345;-72
2024/03/16 07:47:34;;;;;;;2.83;2.33;;;13.20;99.90;;;;;;5094242;28;20407;-71
2024/03/16 07:50:00;;;;;;;2.40;1.80;;;13.10;99.90;;;;;;5094091;28;20411;-73
2024/03/16 07:52:29;;;;;;;2.57;1.60;;;13.10;99.90;;;;;;5094337;28;20427;-70
2024/03/16 07:54:54;;;;;;;4.07;1.20;;;13.10;99.90;;;;;;5093882;28;20419;-70
2024/03/16 07:57:20;;;;;;;3.17;1.33;;;13.10;99.90;;;;;;5094272;28;20934;-68
2024/03/16 07:59:45;;;;;;;3.97;1.90;;;13.10;99.90;;;;;;5093893;28;20545;-69
2024/03/16 08:02:11;;;;;;;2.23;1.20;;;13.00;99.90;;;;;;5093884;28;20640;-74
2024/03/16 08:04:37;;;;;;;2.83;1.20;;;13.00;99.90;;;;;;5093941;28;20209;-74
2024/03/16 08:07:04;;;;;;;1.90;1.30;;;13.00;99.90;;;;;;5094138;28;20487;-72
2024/03/16 08:09:30;;;;;;;2.13;1.10;;;13.30;99.90;;;;;;5075818;28;20178;-72
2024/03/16 08:11:57;;;;;;;2.40;1.23;;;13.30;99.90;;;;;;5075959;28;20461;-73
2024/03/16 08:14:23;;;;;;;1.77;1.23;;;13.40;99.90;;;;;;5093444;28;20413;-74
2024/03/16 08:16:48;;;;;;;2.90;1.23;;;13.50;99.90;;;;;;5093666;28;20191;-72
2024/03/16 08:19:16;;;;;;;3.87;1.47;;;13.50;99.90;;;;;;5092582;28;20447;-71
2024/03/16 08:21:42;;;;;;;3.87;1.23;;;13.50;99.90;;;;;;5093637;28;20164;-71
2024/03/16 08:24:08;;;;;;;1.80;1.17;;;13.50;99.90;;;;;;5093790;28;20422;-71
2024/03/16 08:26:33;;;;;;;2.30;1.27;;;13.10;99.90;;;;;;5093760;28;20822;-71
2024/03/16 08:29:00;;;;;;;1.97;1.07;;;13.00;99.90;;;;;;5093829;28;20177;-70
2024/03/16 08:31:25;;;;;;;2.00;1.10;;;13.00;99.90;;;;;;5075462;28;20173;-70
2024/03/16 08:33:51;;;;;;;2.93;1.10;;;13.00;99.90;;;;;;5106943;22;20488;-76
2024/03/16 08:36:17;;;;;;;2.60;1.10;;;13.10;99.90;;;;;;5093964;28;20204;-74
2024/03/16 08:38:42;;;;;;;2.00;1.03;;;13.00;99.90;;;;;;5093978;28;20161;-76
2024/03/16 08:41:08;;;;;;;1.70;1.33;;;13.30;99.90;;;;;;5094217;28;20240;-73
2024/03/16 08:43:33;;;;;;;1.53;1.30;;;13.20;99.90;;;;;;5085510;28;20274;-72
2024/03/16 08:46:06;;;;;;;1.10;0.83;;;13.30;99.90;;;;;;5073885;28;20159;-74
2024/03/16 08:48:32;;;;;;;1.60;0.80;;;13.20;99.90;;;;;;5073692;28;20251;-72
2024/03/16 08:50:59;;;;;;;1.23;0.70;;;13.20;99.90;;;;;;5074564;28;20458;-71
2024/03/16 08:53:26;;;;;;;1.83;0.90;;;13.40;99.90;;;;;;5072880;28;20429;-72
2024/03/16 08:55:56;;;;;;;1.27;0.70;;;13.60;99.90;;;;;;5073657;28;20429;-72
2024/03/16 08:58:24;;;;;;;2.47;1.83;;;13.80;99.90;;;;;;5073695;28;20409;-72
2024/03/16 09:00:51;;;;;;;1.83;1.20;;;13.30;99.90;;;;;;5073505;28;20485;-72
2024/03/16 09:03:17;;;;;;;1.60;1.00;;;13.30;99.90;;;;;;5073218;28;20439;-72
2024/03/16 09:05:42;;;;;;;0.90;0.60;;;13.40;99.90;;;;;;5074207;28;20436;-72
2024/03/16 09:08:08;;;;;;;2.20;1.10;;;13.20;99.90;;;;;;5074801;28;20161;-73
2024/03/16 09:10:33;;;;;;;1.23;0.60;;;13.40;99.90;;;;;;5074797;28;20170;-72
2024/03/16 09:12:59;;;;;;;3.47;0.83;;;13.50;99.90;;;;;;5074731;28;20654;-72
2024/03/16 09:15:24;;;;;;;1.10;0.73;;;13.60;99.90;;;;;;5074503;28;20562;-73
2024/03/16 09:17:50;;;;;;;1.00;0.80;;;13.40;99.90;;;;;;5072930;28;20566;-72
2024/03/16 09:20:15;;;;;;;1.10;0.70;;;13.50;99.90;;;;;;5071970;28;20177;-72
2024/03/16 09:22:42;;;;;;;1.30;0.80;;;13.40;99.90;;;;;;5073263;28;20168;-72
2024/03/16 09:25:08;;;;;;;1.90;0.87;;;13.40;99.90;;;;;;5073024;28;20180;-72
2024/03/16 09:27:35;;;;;;;0.90;0.80;;;13.50;99.90;;;;;;5073359;28;20406;-71
2024/03/16 09:30:01;;;;;;;0.90;0.77;;;13.60;99.90;;;;;;5073044;28;20778;-72
2024/03/16 09:32:26;;;;;;;1.20;0.90;;;13.70;99.90;;;;;;5072979;28;20406;-72
2024/03/16 09:34:52;;;;;;;1.67;0.70;;;13.80;99.90;;;;;;5072968;28;20445;-71
2024/03/16 09:37:18;;;;;;;1.70;0.73;;;13.60;99.90;;;;;;5072751;28;20242;-72
2024/03/16 09:39:43;;;;;;;1.33;0.83;;;13.50;99.90;;;;;;5072770;28;20195;-71
2024/03/16 09:42:12;;;;;;;1.50;0.80;;;13.50;99.90;;;;;;5073721;28;20226;-73
2024/03/16 09:44:38;;;;;;;1.67;0.80;;;13.60;99.90;;;;;;5072360;28;20234;-71
2024/03/16 09:47:13;;;;;;;1.77;0.90;;;13.50;99.90;;;;;;5073093;28;20404;-72
2024/03/16 09:49:41;;;;;;;1.10;0.73;;;13.80;99.90;;;;;;5073074;28;20750;-73
2024/03/16 09:52:10;;;;;;;1.40;0.80;;;14.10;99.90;;;;;;5072873;28;20406;-73
2024/03/16 09:54:37;;;;;;;1.47;0.70;;;14.20;99.90;;;;;;5073058;28;20479;-73
2024/03/16 09:57:03;;;;;;;1.87;0.90;;;14.40;99.90;;;;;;5072824;28;20446;-74
2024/03/16 09:59:29;;;;;;;1.47;0.83;;;14.50;99.90;;;;;;5072912;28;20403;-72
2024/03/16 10:01:56;;;;;;;1.20;0.80;;;14.40;99.90;;;;;;5071441;28;20925;-73
2024/03/16 10:04:22;;;;;;;1.30;0.60;;;14.30;99.90;;;;;;5072429;28;20435;-73
2024/03/16 10:06:47;;;;;;;1.13;0.60;;;14.30;99.90;;;;;;5072609;28;20828;-74
2024/03/16 10:09:13;;;;;;;1.17;0.70;;;14.40;99.90;;;;;;5072646;28;20409;-73
2024/03/16 10:11:39;;;;;;;1.50;0.90;;;14.70;99.90;;;;;;5072584;28;20169;-72
2024/03/16 10:14:09;;;;;;;1.37;0.93;;;14.80;99.90;;;;;;5072472;28;20208;-72
2024/03/16 10:16:35;;;;;;;2.17;0.80;;;14.70;99.90;;;;;;5072445;28;21023;-72
2024/03/16 10:19:00;;;;;;;2.70;1.07;;;14.70;99.90;;;;;;5071018;28;20410;-73
2024/03/16 10:21:29;;;;;;;3.47;0.93;;;14.70;99.90;;;;;;5072212;28;20253;-73
2024/03/16 10:23:58;;;;;;;5.07;0.93;;;14.60;99.90;;;;;;5072666;28;20613;-73
2024/03/16 10:26:24;;;;;;;1.57;0.70;;;14.50;99.90;;;;;;5072516;28;20814;-72
2024/03/16 10:28:53;;;;;;;2.40;0.80;;;14.60;99.90;;;;;;5072659;28;20403;-73
2024/03/16 10:31:20;;;;;;;1.67;0.80;;;14.40;99.90;;;;;;5072668;28;20491;-73
2024/03/16 10:33:47;;;;;;;1.00;0.60;;;14.60;99.90;;;;;;5072360;28;20446;-72
2024/03/16 10:36:17;;;;;;;1.30;0.80;;;14.80;99.90;;;;;;5072215;28;20422;-72
2024/03/16 10:38:44;;;;;;;1.50;0.70;;;15.00;99.90;;;;;;5072261;28;20387;-72
2024/03/16 10:41:16;;;;;;;1.73;0.50;;;14.90;99.90;;;;;;5072576;28;20474;-72
2024/03/16 10:43:42;;;;;;;0.90;0.60;;;14.90;99.90;;;;;;5072226;28;20941;-72
2024/03/16 10:46:09;;;;;;;1.40;0.50;;;14.90;99.90;;;;;;5072767;28;20407;-73
2024/03/16 10:48:38;;;;;;;0.80;0.60;;;14.70;99.90;;;;;;5071045;28;20438;-72
2024/03/16 10:51:07;;;;;;;0.83;0.47;;;14.60;99.90;;;;;;5071859;28;20415;-72
2024/03/16 10:53:34;;;;;;;1.80;0.50;;;14.80;99.90;;;;;;5071991;28;20429;-72
2024/03/16 10:56:01;;;;;;;1.07;0.50;;;14.60;99.90;;;;;;5073814;28;20488;-72
2024/03/16 10:58:28;;;;;;;0.90;0.70;;;14.80;99.90;;;;;;5075821;28;20862;-72
2024/03/16 11:01:09;;;;;;;1.10;0.60;;;15.30;99.90;;;;;;5075874;28;20430;-73
2024/03/16 11:03:38;;;;;;;0.80;0.50;;;15.10;99.90;;;;;;5075309;28;20551;-73
2024/03/16 11:06:15;;;;;;;1.13;0.70;;;15.10;99.90;;;;;;5075867;28;20498;-73
2024/03/16 11:08:45;;;;;;;1.03;0.50;;;14.90;99.90;;;;;;5075869;28;20738;-71
2024/03/16 11:11:29;;;;;;;0.90;0.70;;;14.70;99.90;;;;;;5075928;28;20397;-72
2024/03/16 11:14:08;;;;;;;1.53;0.70;;;14.80;99.90;;;;;;5075434;28;20470;-74
2024/03/16 11:16:46;;;;;;;1.60;0.57;;;14.80;99.90;;;;;;5075537;28;20961;-75
2024/03/16 11:19:22;;;;;;;1.07;0.50;;;15.60;99.90;;;;;;5075213;28;20405;-72
2024/03/16 11:21:49;;;;;;;1.00;0.60;;;16.70;99.90;;;;;;5074932;28;20483;-72
2024/03/16 11:24:17;;;;;;;1.03;0.60;;;17.80;99.90;;;;;;5074996;28;20499;-73
2024/03/16 11:26:45;;;;;;;0.97;0.60;;;18.50;99.90;;;;;;5075004;28;20910;-73
2024/03/16 11:29:23;;;;;;;0.90;0.60;;;18.70;99.90;;;;;;5074960;28;20440;-72
2024/03/16 11:31:53;;;;;;;0.87;0.60;;;18.30;99.90;;;;;;5075369;28;20385;-72
2024/03/16 11:34:25;;;;;;;1.10;0.60;;;17.40;99.90;;;;;;5074580;28;20824;-73
2024/03/16 11:36:54;;;;;;;0.80;0.70;;;17.90;99.90;;;;;;5075000;28;20455;-74
2024/03/16 11:39:25;;;;;;;1.20;0.60;;;19.10;99.90;;;;;;5074821;28;20400;-76
2024/03/16 11:41:53;;;;;;;1.20;0.87;;;20.00;99.90;;;;;;5075216;28;20436;-75
2024/03/16 11:44:20;;;;;;;1.77;0.70;;;20.20;99.90;;;;;;5074793;28;20432;-74
2024/03/16 11:46:47;;;;;;;1.77;0.67;;;20.40;99.90;;;;;;5074803;28;20437;-73
2024/03/16 11:49:15;;;;;;;1.70;0.80;;;18.40;99.90;;;;;;5075592;28;20804;-72
2024/03/16 11:51:44;;;;;;;2.03;0.67;;;17.00;99.90;;;;;;5074972;28;20495;-73
2024/03/16 11:54:12;;;;;;;1.10;0.60;;;16.30;99.90;;;;;;5063842;28;20420;-74
2024/03/16 11:56:39;;;;;;;0.90;0.70;;;16.90;99.90;;;;;;5074345;28;20977;-74
2024/03/16 11:59:05;;;;;;;0.80;0.50;;;18.00;99.90;;;;;;5074548;28;20401;-74
2024/03/16 12:01:33;;;;;;;1.23;0.67;;;18.40;99.90;;;;;;5074470;28;20404;-74
2024/03/16 12:03:59;;;;;;;1.53;0.60;;;18.90;99.90;;;;;;5074519;28;20439;-74
2024/03/16 12:06:26;;;;;;;2.70;0.60;;;19.50;99.90;;;;;;5074779;28;20400;-74
2024/03/16 12:08:52;;;;;;;0.80;0.60;;;19.70;99.90;;;;;;5074052;28;20412;-74
2024/03/16 12:11:18;;;;;;;1.50;0.80;;;20.10;99.90;;;;;;5074900;28;20423;-74
2024/03/16 12:13:44;;;;;;;1.20;0.70;;;20.70;99.30;;;;;;5074408;28;20190;-74
2024/03/16 12:16:10;;;;;;;0.90;0.60;;;21.00;97.30;;;;;;5074413;28;20405;-74
2024/03/16 12:18:36;;;;;;;1.10;0.90;;;20.50;97.90;;;;;;5073988;28;20811;-73
2024/03/16 12:21:04;;;;;;;1.30;0.50;;;19.70;98.90;;;;;;5074206;28;20154;-74
2024/03/16 12:23:30;;;;;;;0.93;0.80;;;19.30;99.60;;;;;;5074020;28;20189;-74
2024/03/16 12:25:59;;;;;;;0.90;0.70;;;18.90;99.90;;;;;;5074618;28;20400;-74
2024/03/16 12:28:25;;;;;;;0.90;0.80;;;18.30;99.90;;;;;;5073840;28;20166;-74
2024/03/16 12:30:50;;;;;;;2.10;0.60;;;17.80;99.90;;;;;;5073962;28;20775;-74
2024/03/16 12:33:17;;;;;;;1.20;0.90;;;17.00;99.90;;;;;;5073816;28;20696;-74
2024/03/16 12:35:43;;;;;;;1.43;0.80;;;16.80;99.90;;;;;;5074088;28;20162;-74
2024/03/16 12:38:10;;;;;;;0.80;0.67;;;16.90;99.90;;;;;;5074013;28;20859;-74
2024/03/16 12:40:36;;;;;;;0.93;0.70;;;16.80;99.90;;;;;;5074771;28;20837;-73
2024/03/16 12:43:02;;;;;;;1.10;0.60;;;17.00;99.90;;;;;;5075132;28;20420;-74